Overview Statistics Trail Chart Weather Telemetry Raw packets
 

This is the latest recevied weather packets stored in our database for station/object HS3UAA-1. If no packets are shown the sender has not sent any weather packets the latest 10 day(s).

<< 12 13 14 15 16 17 18 >>
Time Temp. Humidity Pressure Rain* Wind** Luminosity Snow
1788566633 33.33° C 48% 997 hPa - - 0 W/m² -
1788566311 33.33° C 50% 997 hPa - - 0 W/m² -
1788565989 33.89° C 48% 997 hPa - - 0 W/m² -
1788565675 35.56° C 45% 996 hPa - - 0 W/m² -
1788565345 35° C 46% 996 hPa - - 0 W/m² -
1788565023 35° C 46% 996 hPa - - 0 W/m² -
1788564701 35° C 45% 996 hPa - - 0 W/m² -
1788564379 34.44° C 47% 996 hPa - - 0 W/m² -
1788564057 33.89° C 47% 996 hPa - - 0 W/m² -
1788563735 34.44° C 47% 996 hPa - - 0 W/m² -
1788563413 35° C 45% 996 hPa - - 0 W/m² -
1788563090 34.44° C 47% 996 hPa - - 0 W/m² -
1788562768 34.44° C 46% 996 hPa - - 0 W/m² -
1788562446 34.44° C 47% 996 hPa - - 0 W/m² -
1788562124 33.89° C 47% 996 hPa - - 0 W/m² -
1788561802 33.89° C 48% 996 hPa - - 0 W/m² -
1788561480 33.89° C 48% 996 hPa - - 0 W/m² -
1788561158 33.89° C 48% 996 hPa - - 0 W/m² -
1788560836 33.89° C 47% 996 hPa - - 0 W/m² -
1788560514 33.89° C 48% 996 hPa - - 0 W/m² -
1788560192 33.89° C 47% 996 hPa - - 0 W/m² -
1788559870 34.44° C 46% 996 hPa - - 0 W/m² -
1788559548 33.89° C 47% 996 hPa - - 0 W/m² -
1788559226 34.44° C 46% 996 hPa - - 0 W/m² -
1788558903 33.89° C 47% 996 hPa - - 0 W/m² -

* Rain since midnight (hover to see other rain measurements)
** Current wind speed in m/s (hover to see current wind gust speed)